首页
METAR-TAF:

METAR-TAF

机场 :

甘露機場

坎卢普斯, 不列颠哥伦比亚, 加拿大

纬度: 50-42N, 经度: 120-27W, 海拔: 345米

当前天气观测

该预报发布于37分钟前的16:00 UTC
风速5节,风向西
温度 17°C
湿度 68%
气压 1011 hPa
能見度: 64.4公里
少量云层高于8500英尺
散云层高于25000英尺

METAR: CYKA 111600Z 28005KT 40SM FEW085 SCT250 17/11 A2984 RMK AC1CI4 AC TR SLP105 DENSITY ALT 1800FT

时间: 09:37 (16:37 UTC)

预报

该预报发布于3小时和58分钟前的12:39 UTC
预报有效从11日的 13点(UTC)到 12日的 01点(UTC)
风速3节,风向多变
能見度: 10公里
少量云层高于8000英尺
从 11日的 2100点(UTC)
风速8节,风向西北
能見度: 10公里
少量云层高于8000英尺
散云层高于15000英尺
成为
从 12日的 00点(UTC)到 12日的 01点(UTC)
风速12节,风向西转西南

TAF: CYKA 111239Z 1113/1201 VRB03KT P6SM FEW080 FM112100 32008KT P6SM FEW080 SCT150 BECMG 1200/1201 24012KT RMK NXT FCST BY 111900Z

超过4000个机场的气象观测和天气预报(METAR&TAF报告)。

可查询的气象台以黄色和红色小点在地图上表示。

将鼠标移到小点上方,可查看气象台名称。

然后点击查看天气观测和预报。

如需切换地图:点击带黑十字的绿色按钮放大地图;点击带横线的绿色按钮缩小地图;或者点击绿色箭头查看邻近地区的地图。


METAR-TAF: